sensor_id;sensor_type;location;lat;lon;timestamp;P1;durP1;ratioP1;P2;durP2;ratioP2
58240;SDS011;45058;55.772;38.224;2022-10-31T00:02:22;0.90;;;0.30;;
58240;SDS011;45058;55.772;38.224;2022-10-31T00:04:48;2.53;;;0.53;;
58240;SDS011;45058;55.772;38.224;2022-10-31T00:07:14;2.73;;;0.40;;
58240;SDS011;45058;55.772;38.224;2022-10-31T00:09:40;1.83;;;0.60;;
58240;SDS011;45058;55.772;38.224;2022-10-31T00:12:06;2.20;;;0.57;;
58240;SDS011;45058;55.772;38.224;2022-10-31T00:14:32;3.83;;;0.90;;
58240;SDS011;45058;55.772;38.224;2022-10-31T00:16:58;4.53;;;0.57;;
58240;SDS011;45058;55.772;38.224;2022-10-31T00:19:23;2.73;;;0.70;;
58240;SDS011;45058;55.772;38.224;2022-10-31T00:21:51;1.00;;;0.50;;
58240;SDS011;45058;55.772;38.224;2022-10-31T00:24:17;2.43;;;1.17;;
58240;SDS011;45058;55.772;38.224;2022-10-31T00:26:44;1.40;;;0.60;;
58240;SDS011;45058;55.772;38.224;2022-10-31T00:29:10;1.27;;;0.50;;
58240;SDS011;45058;55.772;38.224;2022-10-31T00:31:36;2.50;;;0.40;;
58240;SDS011;45058;55.772;38.224;2022-10-31T00:34:02;4.10;;;0.60;;
58240;SDS011;45058;55.772;38.224;2022-10-31T00:36:28;0.83;;;0.30;;
58240;SDS011;45058;55.772;38.224;2022-10-31T00:38:54;1.40;;;0.60;;
58240;SDS011;45058;55.772;38.224;2022-10-31T00:41:21;2.90;;;0.40;;
58240;SDS011;45058;55.772;38.224;2022-10-31T00:43:46;0.87;;;0.40;;
58240;SDS011;45058;55.772;38.224;2022-10-31T00:46:13;1.03;;;0.50;;
58240;SDS011;45058;55.772;38.224;2022-10-31T00:48:40;1.73;;;0.40;;
58240;SDS011;45058;55.772;38.224;2022-10-31T00:51:07;2.10;;;0.50;;
58240;SDS011;45058;55.772;38.224;2022-10-31T00:53:33;2.13;;;0.60;;
58240;SDS011;45058;55.772;38.224;2022-10-31T00:56:00;3.77;;;0.60;;
58240;SDS011;45058;55.772;38.224;2022-10-31T00:58:26;1.73;;;0.40;;
58240;SDS011;45058;55.772;38.224;2022-10-31T01:00:52;2.53;;;0.53;;
58240;SDS011;45058;55.772;38.224;2022-10-31T01:03:25;2.70;;;0.40;;
58240;SDS011;45058;55.772;38.224;2022-10-31T01:06:03;1.97;;;0.40;;
58240;SDS011;45058;55.772;38.224;2022-10-31T01:08:35;0.80;;;0.40;;
58240;SDS011;45058;55.772;38.224;2022-10-31T01:11:06;0.93;;;0.40;;
58240;SDS011;45058;55.772;38.224;2022-10-31T01:13:39;0.83;;;0.43;;
58240;SDS011;45058;55.772;38.224;2022-10-31T01:16:05;2.83;;;0.30;;
58240;SDS011;45058;55.772;38.224;2022-10-31T01:18:33;1.07;;;0.40;;
58240;SDS011;45058;55.772;38.224;2022-10-31T01:21:01;0.83;;;0.30;;
58240;SDS011;45058;55.772;38.224;2022-10-31T01:23:34;1.90;;;0.40;;
58240;SDS011;45058;55.772;38.224;2022-10-31T01:26:10;1.43;;;0.40;;
58240;SDS011;45058;55.772;38.224;2022-10-31T01:28:43;1.57;;;0.30;;
58240;SDS011;45058;55.772;38.224;2022-10-31T01:31:10;2.80;;;0.53;;
58240;SDS011;45058;55.772;38.224;2022-10-31T01:33:37;0.60;;;0.30;;
58240;SDS011;45058;55.772;38.224;2022-10-31T01:38:48;2.17;;;0.35;;
58240;SDS011;45058;55.772;38.224;2022-10-31T01:41:17;2.20;;;0.50;;
58240;SDS011;45058;55.772;38.224;2022-10-31T01:46:44;2.57;;;0.33;;
58240;SDS011;45058;55.772;38.224;2022-10-31T01:49:28;2.05;;;0.40;;
58240;SDS011;45058;55.772;38.224;2022-10-31T01:52:09;3.60;;;0.70;;
58240;SDS011;45058;55.772;38.224;2022-10-31T01:54:58;0.97;;;0.30;;
58240;SDS011;45058;55.772;38.224;2022-10-31T01:57:29;1.27;;;0.43;;
58240;SDS011;45058;55.772;38.224;2022-10-31T01:59:57;3.20;;;0.63;;
58240;SDS011;45058;55.772;38.224;2022-10-31T02:02:29;3.50;;;0.40;;
58240;SDS011;45058;55.772;38.224;2022-10-31T02:04:56;5.20;;;0.50;;
58240;SDS011;45058;55.772;38.224;2022-10-31T02:07:27;3.27;;;0.50;;
58240;SDS011;45058;55.772;38.224;2022-10-31T02:09:58;1.00;;;0.40;;
58240;SDS011;45058;55.772;38.224;2022-10-31T02:12:24;3.33;;;0.30;;
58240;SDS011;45058;55.772;38.224;2022-10-31T02:14:56;1.17;;;0.40;;
58240;SDS011;45058;55.772;38.224;2022-10-31T02:17:22;3.60;;;0.63;;
58240;SDS011;45058;55.772;38.224;2022-10-31T02:30:21;0.60;;;0.37;;
58240;SDS011;45058;55.772;38.224;2022-10-31T02:41:35;3.13;;;0.50;;
58240;SDS011;45058;55.772;38.224;2022-10-31T02:44:12;1.30;;;0.50;;
58240;SDS011;45058;55.772;38.224;2022-10-31T02:46:57;3.00;;;0.60;;
58240;SDS011;45058;55.772;38.224;2022-10-31T02:54:46;3.47;;;0.70;;
58240;SDS011;45058;55.772;38.224;2022-10-31T02:57:13;3.10;;;0.70;;
58240;SDS011;45058;55.772;38.224;2022-10-31T02:59:44;4.57;;;0.70;;
58240;SDS011;45058;55.772;38.224;2022-10-31T03:02:29;1.13;;;0.50;;
58240;SDS011;45058;55.772;38.224;2022-10-31T03:08:06;5.00;;;0.83;;
58240;SDS011;45058;55.772;38.224;2022-10-31T03:10:47;1.60;;;0.70;;
58240;SDS011;45058;55.772;38.224;2022-10-31T03:15:57;1.80;;;0.73;;
58240;SDS011;45058;55.772;38.224;2022-10-31T03:18:32;1.63;;;0.80;;
58240;SDS011;45058;55.772;38.224;2022-10-31T03:21:07;2.33;;;0.60;;
58240;SDS011;45058;55.772;38.224;2022-10-31T03:23:38;2.28;;;0.88;;
58240;SDS011;45058;55.772;38.224;2022-10-31T03:26:05;3.93;;;1.00;;
58240;SDS011;45058;55.772;38.224;2022-10-31T03:28:35;3.30;;;1.03;;
58240;SDS011;45058;55.772;38.224;2022-10-31T03:31:05;4.23;;;0.70;;
58240;SDS011;45058;55.772;38.224;2022-10-31T03:33:35;6.77;;;0.83;;
58240;SDS011;45058;55.772;38.224;2022-10-31T03:36:03;3.47;;;0.70;;
58240;SDS011;45058;55.772;38.224;2022-10-31T03:38:31;1.50;;;0.60;;
58240;SDS011;45058;55.772;38.224;2022-10-31T03:40:58;2.13;;;0.80;;
58240;SDS011;45058;55.772;38.224;2022-10-31T03:43:30;1.83;;;0.70;;
58240;SDS011;45058;55.772;38.224;2022-10-31T03:45:58;0.93;;;0.47;;
58240;SDS011;45058;55.772;38.224;2022-10-31T03:48:26;1.30;;;0.60;;
58240;SDS011;45058;55.772;38.224;2022-10-31T03:53:34;3.23;;;0.70;;
58240;SDS011;45058;55.772;38.224;2022-10-31T03:56:11;2.47;;;1.00;;
58240;SDS011;45058;55.772;38.224;2022-10-31T03:58:46;3.87;;;1.03;;
58240;SDS011;45058;55.772;38.224;2022-10-31T04:01:15;3.00;;;0.90;;
58240;SDS011;45058;55.772;38.224;2022-10-31T04:03:43;1.83;;;0.70;;
58240;SDS011;45058;55.772;38.224;2022-10-31T04:06:12;2.70;;;0.77;;
58240;SDS011;45058;55.772;38.224;2022-10-31T04:08:42;2.43;;;1.10;;
58240;SDS011;45058;55.772;38.224;2022-10-31T04:11:19;3.90;;;0.87;;
58240;SDS011;45058;55.772;38.224;2022-10-31T04:14:08;2.73;;;0.77;;
58240;SDS011;45058;55.772;38.224;2022-10-31T04:16:38;4.13;;;1.13;;
58240;SDS011;45058;55.772;38.224;2022-10-31T04:19:05;1.70;;;0.60;;
58240;SDS011;45058;55.772;38.224;2022-10-31T04:21:31;3.93;;;0.90;;
58240;SDS011;45058;55.772;38.224;2022-10-31T04:23:57;2.07;;;0.73;;
58240;SDS011;45058;55.772;38.224;2022-10-31T04:26:26;4.30;;;0.83;;
58240;SDS011;45058;55.772;38.224;2022-10-31T04:28:53;4.50;;;1.07;;
58240;SDS011;45058;55.772;38.224;2022-10-31T04:31:19;1.40;;;0.80;;
58240;SDS011;45058;55.772;38.224;2022-10-31T04:33:47;3.03;;;0.80;;
58240;SDS011;45058;55.772;38.224;2022-10-31T04:36:13;3.90;;;0.90;;
58240;SDS011;45058;55.772;38.224;2022-10-31T04:38:41;2.57;;;0.70;;
58240;SDS011;45058;55.772;38.224;2022-10-31T04:41:18;2.97;;;0.60;;
58240;SDS011;45058;55.772;38.224;2022-10-31T04:44:00;1.50;;;0.70;;
58240;SDS011;45058;55.772;38.224;2022-10-31T04:46:27;1.70;;;0.70;;
58240;SDS011;45058;55.772;38.224;2022-10-31T04:48:55;4.07;;;0.70;;
58240;SDS011;45058;55.772;38.224;2022-10-31T04:51:23;2.97;;;1.27;;
58240;SDS011;45058;55.772;38.224;2022-10-31T04:53:51;2.20;;;0.90;;
58240;SDS011;45058;55.772;38.224;2022-10-31T04:56:36;2.80;;;1.00;;
58240;SDS011;45058;55.772;38.224;2022-10-31T04:59:10;2.87;;;0.97;;
58240;SDS011;45058;55.772;38.224;2022-10-31T05:01:47;1.47;;;0.70;;
58240;SDS011;45058;55.772;38.224;2022-10-31T05:04:16;5.97;;;1.00;;
58240;SDS011;45058;55.772;38.224;2022-10-31T05:06:43;2.87;;;0.73;;
58240;SDS011;45058;55.772;38.224;2022-10-31T05:09:09;3.30;;;1.00;;
58240;SDS011;45058;55.772;38.224;2022-10-31T05:11:37;7.77;;;1.30;;
58240;SDS011;45058;55.772;38.224;2022-10-31T05:14:27;2.90;;;0.90;;
58240;SDS011;45058;55.772;38.224;2022-10-31T05:17:12;0.80;;;0.57;;
58240;SDS011;45058;55.772;38.224;2022-10-31T05:19:57;3.40;;;0.90;;
58240;SDS011;45058;55.772;38.224;2022-10-31T05:22:44;2.85;;;0.77;;
58240;SDS011;45058;55.772;38.224;2022-10-31T05:25:14;1.57;;;0.70;;
58240;SDS011;45058;55.772;38.224;2022-10-31T05:27:42;4.17;;;0.70;;
58240;SDS011;45058;55.772;38.224;2022-10-31T05:30:09;1.10;;;0.70;;
58240;SDS011;45058;55.772;38.224;2022-10-31T05:32:41;2.70;;;0.87;;
58240;SDS011;45058;55.772;38.224;2022-10-31T05:35:28;2.70;;;0.57;;
58240;SDS011;45058;55.772;38.224;2022-10-31T05:38:21;1.63;;;0.70;;
58240;SDS011;45058;55.772;38.224;2022-10-31T05:40:48;3.13;;;1.03;;
58240;SDS011;45058;55.772;38.224;2022-10-31T05:43:15;2.63;;;1.00;;
58240;SDS011;45058;55.772;38.224;2022-10-31T05:45:42;3.30;;;1.23;;
58240;SDS011;45058;55.772;38.224;2022-10-31T05:48:25;1.70;;;0.80;;
58240;SDS011;45058;55.772;38.224;2022-10-31T05:51:20;2.10;;;0.80;;
58240;SDS011;45058;55.772;38.224;2022-10-31T05:53:47;4.77;;;0.90;;
58240;SDS011;45058;55.772;38.224;2022-10-31T05:56:13;1.80;;;0.93;;
58240;SDS011;45058;55.772;38.224;2022-10-31T05:58:40;2.63;;;0.90;;
58240;SDS011;45058;55.772;38.224;2022-10-31T06:01:07;2.43;;;1.30;;
58240;SDS011;45058;55.772;38.224;2022-10-31T06:03:33;2.00;;;0.90;;
58240;SDS011;45058;55.772;38.224;2022-10-31T06:06:02;4.57;;;1.00;;
58240;SDS011;45058;55.772;38.224;2022-10-31T06:08:35;2.30;;;1.10;;
58240;SDS011;45058;55.772;38.224;2022-10-31T06:11:05;1.73;;;1.00;;
58240;SDS011;45058;55.772;38.224;2022-10-31T06:13:55;8.40;;;1.60;;
58240;SDS011;45058;55.772;38.224;2022-10-31T06:16:25;4.97;;;2.10;;
58240;SDS011;45058;55.772;38.224;2022-10-31T06:18:55;6.57;;;1.87;;
58240;SDS011;45058;55.772;38.224;2022-10-31T06:21:22;5.13;;;1.37;;
58240;SDS011;45058;55.772;38.224;2022-10-31T06:23:50;3.33;;;1.10;;
58240;SDS011;45058;55.772;38.224;2022-10-31T06:26:37;4.87;;;1.73;;
58240;SDS011;45058;55.772;38.224;2022-10-31T06:29:05;4.40;;;1.40;;
58240;SDS011;45058;55.772;38.224;2022-10-31T06:31:53;2.65;;;1.08;;
58240;SDS011;45058;55.772;38.224;2022-10-31T06:34:19;4.83;;;1.20;;
58240;SDS011;45058;55.772;38.224;2022-10-31T06:36:46;2.63;;;1.47;;
58240;SDS011;45058;55.772;38.224;2022-10-31T06:39:13;3.90;;;1.70;;
58240;SDS011;45058;55.772;38.224;2022-10-31T06:41:41;5.63;;;1.77;;
58240;SDS011;45058;55.772;38.224;2022-10-31T06:44:09;4.17;;;1.90;;
58240;SDS011;45058;55.772;38.224;2022-10-31T06:46:53;10.07;;;3.10;;
58240;SDS011;45058;55.772;38.224;2022-10-31T06:49:38;2.37;;;1.07;;
58240;SDS011;45058;55.772;38.224;2022-10-31T06:52:11;4.43;;;2.27;;
58240;SDS011;45058;55.772;38.224;2022-10-31T06:54:38;3.17;;;1.60;;
58240;SDS011;45058;55.772;38.224;2022-10-31T06:57:06;4.40;;;1.27;;
58240;SDS011;45058;55.772;38.224;2022-10-31T06:59:32;3.07;;;1.53;;
58240;SDS011;45058;55.772;38.224;2022-10-31T07:02:09;2.87;;;1.30;;
58240;SDS011;45058;55.772;38.224;2022-10-31T07:04:37;5.03;;;1.80;;
58240;SDS011;45058;55.772;38.224;2022-10-31T07:07:04;4.80;;;1.53;;
58240;SDS011;45058;55.772;38.224;2022-10-31T07:09:32;3.50;;;1.60;;
58240;SDS011;45058;55.772;38.224;2022-10-31T07:12:02;5.20;;;1.80;;
58240;SDS011;45058;55.772;38.224;2022-10-31T07:14:31;7.70;;;2.43;;
58240;SDS011;45058;55.772;38.224;2022-10-31T07:16:57;3.33;;;1.47;;
58240;SDS011;45058;55.772;38.224;2022-10-31T07:19:31;7.50;;;3.17;;
58240;SDS011;45058;55.772;38.224;2022-10-31T07:21:57;11.10;;;4.20;;
58240;SDS011;45058;55.772;38.224;2022-10-31T07:24:26;4.17;;;1.93;;
58240;SDS011;45058;55.772;38.224;2022-10-31T07:27:12;7.05;;;2.40;;
58240;SDS011;45058;55.772;38.224;2022-10-31T07:29:38;6.53;;;2.77;;
58240;SDS011;45058;55.772;38.224;2022-10-31T07:32:04;6.63;;;1.57;;
58240;SDS011;45058;55.772;38.224;2022-10-31T07:34:33;4.03;;;2.13;;
58240;SDS011;45058;55.772;38.224;2022-10-31T07:37:16;10.27;;;2.73;;
58240;SDS011;45058;55.772;38.224;2022-10-31T07:39:42;3.87;;;1.80;;
58240;SDS011;45058;55.772;38.224;2022-10-31T07:42:08;4.57;;;2.33;;
58240;SDS011;45058;55.772;38.224;2022-10-31T07:44:35;3.60;;;2.13;;
58240;SDS011;45058;55.772;38.224;2022-10-31T07:47:52;3.83;;;1.57;;
58240;SDS011;45058;55.772;38.224;2022-10-31T07:50:36;2.37;;;1.30;;
58240;SDS011;45058;55.772;38.224;2022-10-31T07:53:36;4.10;;;1.80;;
58240;SDS011;45058;55.772;38.224;2022-10-31T07:56:29;2.93;;;1.20;;
58240;SDS011;45058;55.772;38.224;2022-10-31T07:58:54;1.80;;;1.13;;
58240;SDS011;45058;55.772;38.224;2022-10-31T08:01:21;2.70;;;1.30;;
58240;SDS011;45058;55.772;38.224;2022-10-31T08:04:04;2.07;;;1.00;;
58240;SDS011;45058;55.772;38.224;2022-10-31T08:07:00;1.43;;;0.93;;
58240;SDS011;45058;55.772;38.224;2022-10-31T08:09:32;1.87;;;1.10;;
58240;SDS011;45058;55.772;38.224;2022-10-31T08:12:03;1.47;;;0.90;;
58240;SDS011;45058;55.772;38.224;2022-10-31T08:14:32;1.50;;;0.73;;
58240;SDS011;45058;55.772;38.224;2022-10-31T08:16:58;3.77;;;1.70;;
58240;SDS011;45058;55.772;38.224;2022-10-31T08:19:32;5.13;;;1.70;;
58240;SDS011;45058;55.772;38.224;2022-10-31T08:21:58;2.00;;;1.10;;
58240;SDS011;45058;55.772;38.224;2022-10-31T08:24:25;2.00;;;1.10;;
58240;SDS011;45058;55.772;38.224;2022-10-31T08:26:52;2.20;;;1.17;;
58240;SDS011;45058;55.772;38.224;2022-10-31T08:29:18;3.33;;;1.33;;
58240;SDS011;45058;55.772;38.224;2022-10-31T08:31:46;3.23;;;1.30;;
58240;SDS011;45058;55.772;38.224;2022-10-31T08:34:41;2.30;;;1.47;;
58240;SDS011;45058;55.772;38.224;2022-10-31T08:37:25;1.40;;;1.00;;
58240;SDS011;45058;55.772;38.224;2022-10-31T08:39:53;3.60;;;0.97;;
58240;SDS011;45058;55.772;38.224;2022-10-31T08:42:20;3.27;;;1.03;;
58240;SDS011;45058;55.772;38.224;2022-10-31T08:44:46;2.53;;;0.97;;
58240;SDS011;45058;55.772;38.224;2022-10-31T08:47:12;2.03;;;1.20;;
58240;SDS011;45058;55.772;38.224;2022-10-31T08:49:39;2.57;;;1.07;;
58240;SDS011;45058;55.772;38.224;2022-10-31T08:52:04;2.07;;;1.17;;
58240;SDS011;45058;55.772;38.224;2022-10-31T08:54:35;2.23;;;1.10;;
58240;SDS011;45058;55.772;38.224;2022-10-31T08:57:32;2.73;;;1.17;;
58240;SDS011;45058;55.772;38.224;2022-10-31T08:59:58;2.97;;;0.73;;
58240;SDS011;45058;55.772;38.224;2022-10-31T09:02:33;1.40;;;0.70;;
58240;SDS011;45058;55.772;38.224;2022-10-31T09:05:00;2.67;;;0.93;;
58240;SDS011;45058;55.772;38.224;2022-10-31T09:07:29;2.90;;;1.47;;
58240;SDS011;45058;55.772;38.224;2022-10-31T09:09:59;2.70;;;1.20;;
58240;SDS011;45058;55.772;38.224;2022-10-31T09:12:59;3.40;;;1.40;;
58240;SDS011;45058;55.772;38.224;2022-10-31T09:15:56;5.07;;;1.87;;
58240;SDS011;45058;55.772;38.224;2022-10-31T09:18:44;3.28;;;1.35;;
58240;SDS011;45058;55.772;38.224;2022-10-31T09:21:35;3.80;;;1.70;;
58240;SDS011;45058;55.772;38.224;2022-10-31T09:24:28;5.60;;;2.30;;
58240;SDS011;45058;55.772;38.224;2022-10-31T09:27:15;6.70;;;2.00;;
58240;SDS011;45058;55.772;38.224;2022-10-31T09:30:03;7.63;;;2.75;;
58240;SDS011;45058;55.772;38.224;2022-10-31T09:32:45;5.70;;;2.40;;
58240;SDS011;45058;55.772;38.224;2022-10-31T09:35:39;3.00;;;1.70;;
58240;SDS011;45058;55.772;38.224;2022-10-31T09:38:14;3.40;;;1.53;;
58240;SDS011;45058;55.772;38.224;2022-10-31T09:40:44;5.47;;;2.10;;
58240;SDS011;45058;55.772;38.224;2022-10-31T09:54:34;5.60;;;2.40;;
58240;SDS011;45058;55.772;38.224;2022-10-31T09:57:09;2.33;;;1.33;;
58240;SDS011;45058;55.772;38.224;2022-10-31T09:59:40;2.27;;;1.20;;
58240;SDS011;45058;55.772;38.224;2022-10-31T10:02:19;3.97;;;1.13;;
58240;SDS011;45058;55.772;38.224;2022-10-31T10:13:44;3.00;;;1.20;;
58240;SDS011;45058;55.772;38.224;2022-10-31T10:30:22;4.10;;;2.07;;
58240;SDS011;45058;55.772;38.224;2022-10-31T10:32:54;2.50;;;1.63;;
58240;SDS011;45058;55.772;38.224;2022-10-31T10:35:24;2.50;;;1.50;;
58240;SDS011;45058;55.772;38.224;2022-10-31T10:38:12;3.07;;;1.70;;
58240;SDS011;45058;55.772;38.224;2022-10-31T10:40:41;6.63;;;2.03;;
58240;SDS011;45058;55.772;38.224;2022-10-31T10:45:49;2.80;;;1.47;;
58240;SDS011;45058;55.772;38.224;2022-10-31T10:57:18;2.60;;;1.30;;
58240;SDS011;45058;55.772;38.224;2022-10-31T10:59:46;1.87;;;1.20;;
58240;SDS011;45058;55.772;38.224;2022-10-31T11:02:23;2.70;;;1.50;;
58240;SDS011;45058;55.772;38.224;2022-10-31T11:04:54;3.10;;;1.43;;
58240;SDS011;45058;55.772;38.224;2022-10-31T11:07:21;4.37;;;1.50;;
58240;SDS011;45058;55.772;38.224;2022-10-31T11:09:47;3.63;;;1.43;;
58240;SDS011;45058;55.772;38.224;2022-10-31T11:12:20;2.87;;;1.40;;
58240;SDS011;45058;55.772;38.224;2022-10-31T11:14:53;3.13;;;1.40;;
58240;SDS011;45058;55.772;38.224;2022-10-31T11:17:29;3.33;;;1.43;;
58240;SDS011;45058;55.772;38.224;2022-10-31T11:20:20;2.53;;;1.20;;
58240;SDS011;45058;55.772;38.224;2022-10-31T11:22:59;1.50;;;0.93;;
58240;SDS011;45058;55.772;38.224;2022-10-31T11:25:28;1.43;;;0.80;;
58240;SDS011;45058;55.772;38.224;2022-10-31T11:28:01;1.37;;;0.73;;
58240;SDS011;45058;55.772;38.224;2022-10-31T11:30:35;0.82;;;0.60;;
58240;SDS011;45058;55.772;38.224;2022-10-31T11:33:27;4.30;;;0.97;;
58240;SDS011;45058;55.772;38.224;2022-10-31T11:35:57;1.40;;;0.60;;
58240;SDS011;45058;55.772;38.224;2022-10-31T11:38:24;3.07;;;0.57;;
58240;SDS011;45058;55.772;38.224;2022-10-31T11:40:59;2.07;;;0.60;;
58240;SDS011;45058;55.772;38.224;2022-10-31T11:43:31;0.95;;;0.60;;
58240;SDS011;45058;55.772;38.224;2022-10-31T11:45:57;1.40;;;0.70;;
58240;SDS011;45058;55.772;38.224;2022-10-31T11:48:23;1.57;;;0.70;;
58240;SDS011;45058;55.772;38.224;2022-10-31T11:50:52;4.00;;;0.87;;
58240;SDS011;45058;55.772;38.224;2022-10-31T11:53:25;2.50;;;0.63;;
58240;SDS011;45058;55.772;38.224;2022-10-31T11:56:04;1.00;;;0.63;;
58240;SDS011;45058;55.772;38.224;2022-10-31T11:58:32;1.47;;;0.53;;
58240;SDS011;45058;55.772;38.224;2022-10-31T12:00:58;1.90;;;0.87;;
58240;SDS011;45058;55.772;38.224;2022-10-31T12:04:07;4.87;;;1.90;;
58240;SDS011;45058;55.772;38.224;2022-10-31T12:06:36;2.70;;;1.63;;
58240;SDS011;45058;55.772;38.224;2022-10-31T12:12:22;2.40;;;0.90;;
58240;SDS011;45058;55.772;38.224;2022-10-31T12:37:28;2.87;;;0.70;;
58240;SDS011;45058;55.772;38.224;2022-10-31T12:45:25;1.23;;;0.80;;
58240;SDS011;45058;55.772;38.224;2022-10-31T12:48:33;1.63;;;0.70;;
58240;SDS011;45058;55.772;38.224;2022-10-31T12:59:59;2.07;;;0.77;;
58240;SDS011;45058;55.772;38.224;2022-10-31T13:02:49;2.20;;;0.80;;
58240;SDS011;45058;55.772;38.224;2022-10-31T13:05:37;1.57;;;0.70;;
58240;SDS011;45058;55.772;38.224;2022-10-31T13:10:37;2.37;;;1.10;;
58240;SDS011;45058;55.772;38.224;2022-10-31T13:13:11;1.90;;;0.90;;
58240;SDS011;45058;55.772;38.224;2022-10-31T13:15:48;1.73;;;1.00;;
58240;SDS011;45058;55.772;38.224;2022-10-31T13:18:58;2.22;;;1.20;;
58240;SDS011;45058;55.772;38.224;2022-10-31T13:21:09;3.30;;;1.27;;
58240;SDS011;45058;55.772;38.224;2022-10-31T13:23:38;4.63;;;1.90;;
58240;SDS011;45058;55.772;38.224;2022-10-31T13:26:09;4.07;;;1.73;;
58240;SDS011;45058;55.772;38.224;2022-10-31T13:31:11;4.43;;;1.30;;
58240;SDS011;45058;55.772;38.224;2022-10-31T13:36:21;3.93;;;1.57;;
58240;SDS011;45058;55.772;38.224;2022-10-31T13:38:53;4.20;;;1.60;;
58240;SDS011;45058;55.772;38.224;2022-10-31T13:47:22;3.90;;;1.50;;
58240;SDS011;45058;55.772;38.224;2022-10-31T13:50:04;6.60;;;2.87;;
58240;SDS011;45058;55.772;38.224;2022-10-31T13:52:46;3.07;;;1.13;;
58240;SDS011;45058;55.772;38.224;2022-10-31T13:58:26;2.47;;;1.00;;
58240;SDS011;45058;55.772;38.224;2022-10-31T14:00:58;2.27;;;1.30;;
58240;SDS011;45058;55.772;38.224;2022-10-31T14:03:25;3.17;;;1.40;;
58240;SDS011;45058;55.772;38.224;2022-10-31T14:05:52;2.17;;;1.20;;
58240;SDS011;45058;55.772;38.224;2022-10-31T14:08:20;1.43;;;0.90;;
58240;SDS011;45058;55.772;38.224;2022-10-31T14:10:48;1.37;;;0.93;;
58240;SDS011;45058;55.772;38.224;2022-10-31T14:13:26;1.87;;;1.17;;
58240;SDS011;45058;55.772;38.224;2022-10-31T14:15:56;1.80;;;0.87;;
58240;SDS011;45058;55.772;38.224;2022-10-31T14:18:36;3.87;;;1.57;;
58240;SDS011;45058;55.772;38.224;2022-10-31T14:23:51;1.97;;;1.03;;
58240;SDS011;45058;55.772;38.224;2022-10-31T14:31:42;2.93;;;1.00;;
58240;SDS011;45058;55.772;38.224;2022-10-31T14:37:11;1.30;;;0.50;;
58240;SDS011;45058;55.772;38.224;2022-10-31T14:53:03;2.42;;;0.98;;
58240;SDS011;45058;55.772;38.224;2022-10-31T14:55:30;3.00;;;0.80;;
58240;SDS011;45058;55.772;38.224;2022-10-31T15:00:23;4.20;;;1.10;;
58240;SDS011;45058;55.772;38.224;2022-10-31T15:03:01;2.40;;;0.90;;
58240;SDS011;45058;55.772;38.224;2022-10-31T15:05:32;3.33;;;1.00;;
58240;SDS011;45058;55.772;38.224;2022-10-31T15:08:00;1.73;;;0.93;;
58240;SDS011;45058;55.772;38.224;2022-10-31T15:10:28;3.00;;;1.07;;
58240;SDS011;45058;55.772;38.224;2022-10-31T15:13:19;2.17;;;0.80;;
58240;SDS011;45058;55.772;38.224;2022-10-31T15:15:50;2.67;;;1.27;;
58240;SDS011;45058;55.772;38.224;2022-10-31T15:18:24;3.50;;;1.10;;
58240;SDS011;45058;55.772;38.224;2022-10-31T15:20:52;2.30;;;1.40;;
58240;SDS011;45058;55.772;38.224;2022-10-31T15:23:23;1.73;;;0.80;;
58240;SDS011;45058;55.772;38.224;2022-10-31T15:26:00;2.80;;;1.13;;
58240;SDS011;45058;55.772;38.224;2022-10-31T15:28:27;4.43;;;1.20;;
58240;SDS011;45058;55.772;38.224;2022-10-31T15:30:55;2.53;;;1.00;;
58240;SDS011;45058;55.772;38.224;2022-10-31T15:33:24;1.30;;;0.97;;
58240;SDS011;45058;55.772;38.224;2022-10-31T15:35:56;3.13;;;1.00;;
58240;SDS011;45058;55.772;38.224;2022-10-31T15:38:23;3.17;;;1.00;;
58240;SDS011;45058;55.772;38.224;2022-10-31T15:40:54;3.00;;;1.43;;
58240;SDS011;45058;55.772;38.224;2022-10-31T15:43:25;1.85;;;0.95;;
58240;SDS011;45058;55.772;38.224;2022-10-31T15:45:53;4.13;;;2.10;;
58240;SDS011;45058;55.772;38.224;2022-10-31T15:48:23;2.30;;;1.03;;
58240;SDS011;45058;55.772;38.224;2022-10-31T15:50:56;3.03;;;1.40;;
58240;SDS011;45058;55.772;38.224;2022-10-31T15:53:36;3.23;;;1.30;;
58240;SDS011;45058;55.772;38.224;2022-10-31T15:56:05;3.03;;;1.23;;
58240;SDS011;45058;55.772;38.224;2022-10-31T15:58:46;3.50;;;1.50;;
58240;SDS011;45058;55.772;38.224;2022-10-31T16:01:24;3.23;;;1.37;;
58240;SDS011;45058;55.772;38.224;2022-10-31T16:03:58;2.40;;;1.30;;
58240;SDS011;45058;55.772;38.224;2022-10-31T16:06:28;3.50;;;1.90;;
58240;SDS011;45058;55.772;38.224;2022-10-31T16:08:54;3.30;;;1.00;;
58240;SDS011;45058;55.772;38.224;2022-10-31T16:16:31;2.10;;;0.90;;
58240;SDS011;45058;55.772;38.224;2022-10-31T16:19:00;1.30;;;0.80;;
58240;SDS011;45058;55.772;38.224;2022-10-31T16:21:28;2.10;;;0.97;;
58240;SDS011;45058;55.772;38.224;2022-10-31T16:24:19;3.70;;;1.60;;
58240;SDS011;45058;55.772;38.224;2022-10-31T16:26:51;3.03;;;1.50;;
58240;SDS011;45058;55.772;38.224;2022-10-31T16:29:26;3.33;;;1.73;;
58240;SDS011;45058;55.772;38.224;2022-10-31T16:32:22;5.40;;;2.87;;
58240;SDS011;45058;55.772;38.224;2022-10-31T16:37:47;5.47;;;1.40;;
58240;SDS011;45058;55.772;38.224;2022-10-31T16:40:13;1.40;;;0.80;;
58240;SDS011;45058;55.772;38.224;2022-10-31T16:42:40;4.57;;;2.27;;
58240;SDS011;45058;55.772;38.224;2022-10-31T16:45:13;6.13;;;1.87;;
58240;SDS011;45058;55.772;38.224;2022-10-31T16:47:41;4.67;;;2.33;;
58240;SDS011;45058;55.772;38.224;2022-10-31T16:50:13;4.07;;;1.63;;
58240;SDS011;45058;55.772;38.224;2022-10-31T16:52:41;4.97;;;2.13;;
58240;SDS011;45058;55.772;38.224;2022-10-31T16:55:12;5.43;;;2.63;;
58240;SDS011;45058;55.772;38.224;2022-10-31T16:57:39;3.63;;;1.93;;
58240;SDS011;45058;55.772;38.224;2022-10-31T17:00:14;6.23;;;2.77;;
58240;SDS011;45058;55.772;38.224;2022-10-31T17:02:41;4.13;;;1.80;;
58240;SDS011;45058;55.772;38.224;2022-10-31T17:05:10;4.33;;;1.97;;
58240;SDS011;45058;55.772;38.224;2022-10-31T17:07:39;3.40;;;1.87;;
58240;SDS011;45058;55.772;38.224;2022-10-31T17:10:06;2.63;;;1.50;;
58240;SDS011;45058;55.772;38.224;2022-10-31T17:12:32;3.83;;;2.10;;
58240;SDS011;45058;55.772;38.224;2022-10-31T17:14:59;2.90;;;1.37;;
58240;SDS011;45058;55.772;38.224;2022-10-31T17:17:25;5.27;;;2.23;;
58240;SDS011;45058;55.772;38.224;2022-10-31T17:19:51;3.23;;;1.73;;
58240;SDS011;45058;55.772;38.224;2022-10-31T17:22:19;4.97;;;2.07;;
58240;SDS011;45058;55.772;38.224;2022-10-31T17:24:45;4.20;;;1.83;;
58240;SDS011;45058;55.772;38.224;2022-10-31T17:27:12;4.17;;;1.93;;
58240;SDS011;45058;55.772;38.224;2022-10-31T17:29:38;4.97;;;2.27;;
58240;SDS011;45058;55.772;38.224;2022-10-31T17:32:04;5.73;;;3.00;;
58240;SDS011;45058;55.772;38.224;2022-10-31T17:34:30;7.43;;;3.10;;
58240;SDS011;45058;55.772;38.224;2022-10-31T17:36:56;6.27;;;2.57;;
58240;SDS011;45058;55.772;38.224;2022-10-31T17:39:24;5.53;;;2.20;;
58240;SDS011;45058;55.772;38.224;2022-10-31T17:41:50;5.10;;;1.80;;
58240;SDS011;45058;55.772;38.224;2022-10-31T17:44:17;5.63;;;1.60;;
58240;SDS011;45058;55.772;38.224;2022-10-31T17:46:44;3.77;;;1.90;;
58240;SDS011;45058;55.772;38.224;2022-10-31T17:49:10;3.40;;;1.80;;
58240;SDS011;45058;55.772;38.224;2022-10-31T17:51:37;3.77;;;1.10;;
58240;SDS011;45058;55.772;38.224;2022-10-31T17:54:03;3.23;;;1.60;;
58240;SDS011;45058;55.772;38.224;2022-10-31T17:56:32;3.73;;;1.30;;
58240;SDS011;45058;55.772;38.224;2022-10-31T17:58:59;3.67;;;1.50;;
58240;SDS011;45058;55.772;38.224;2022-10-31T18:01:28;3.20;;;1.40;;